Danville, Georgia
Current Conditions -  °F | °C
As of 6:15 PM on Tuesday 25 Nov 2014 (Local Time) from KDBN Reporting Station
Drizzle Drizzle  
Wind Chill: 50°   Ceiling: 8500
Heat Index: 50°   Visibility: 10mi
Dew Point: 50°   Wind: 5mph
Humidity: 100%   Direction: 330°NNW
Pressure: 30.05"   Gusts: NA
Location:  32.61°N, 83.25°W
Report Text: KDBN 252315Z AUTO 33004KT 10SM -DZ OVC085 10/10 A3005 RMK AO2
Loading
Personal Weather Stations






























Interactive Weather Map New forecast layout! Learn more

10-Day Weather Forecast

Advertisements
Track Severe Weather on mobile